createdAt,value
2016-10-07T00:00:09.655Z,0
2016-10-07T00:01:09.672Z,0
2016-10-07T00:02:24.621Z,0
2016-10-07T00:03:10.260Z,0
2016-10-07T00:04:10.039Z,0
2016-10-07T00:05:10.008Z,0
2016-10-07T00:06:09.792Z,0
2016-10-07T00:07:09.802Z,0
2016-10-07T00:08:24.746Z,0
2016-10-07T00:09:25.072Z,0
2016-10-07T00:10:09.864Z,0
2016-10-07T00:11:24.812Z,0
2016-10-07T00:15:24.896Z,0
2016-10-07T00:16:10.253Z,0
2016-10-07T00:17:10.032Z,0
2016-10-07T00:18:24.964Z,0
2016-10-07T00:20:10.086Z,0
2016-10-07T00:21:10.102Z,0
2016-10-07T00:22:10.127Z,0
2016-10-07T00:23:10.139Z,0
2016-10-07T00:24:25.096Z,0
2016-10-07T00:25:10.200Z,0
2016-10-07T00:26:10.212Z,0
2016-10-07T00:27:25.158Z,0
2016-10-07T00:28:10.254Z,0
2016-10-07T00:29:10.276Z,0
2016-10-07T00:30:10.607Z,0
2016-10-07T00:31:10.631Z,0
2016-10-07T00:32:10.345Z,0
2016-10-07T00:33:10.368Z,0
2016-10-07T00:34:10.379Z,0
2016-10-07T00:35:25.321Z,0
2016-10-07T00:36:10.435Z,0
2016-10-07T00:37:10.443Z,0
2016-10-07T00:38:10.474Z,0
2016-10-07T00:39:40.334Z,0
2016-10-07T00:40:25.431Z,0
2016-10-07T00:41:10.539Z,0
2016-10-07T00:42:25.478Z,0
2016-10-07T00:43:25.499Z,0
2016-10-07T00:44:10.599Z,0
2016-10-07T00:45:10.616Z,0
2016-10-07T00:46:10.936Z,0
2016-10-07T00:47:10.662Z,0
2016-10-07T00:48:25.604Z,0
2016-10-07T00:49:10.713Z,0
2016-10-07T00:50:25.961Z,0
2016-10-07T00:52:25.814Z,0
2016-10-07T00:53:10.788Z,0
2016-10-07T00:54:10.806Z,0
2016-10-07T00:55:10.837Z,0
2016-10-07T00:56:10.845Z,0
2016-10-07T00:57:10.879Z,0
2016-10-07T00:58:10.894Z,0
2016-10-07T01:00:25.856Z,0
2016-10-07T01:01:10.978Z,0
2016-10-07T01:02:10.988Z,0
2016-10-07T01:03:11.002Z,0
2016-10-07T01:05:11.045Z,0
2016-10-07T01:06:11.070Z,0
2016-10-07T01:07:11.392Z,0
2016-10-07T01:09:11.147Z,0
2016-10-07T01:10:26.073Z,0
2016-10-07T01:11:11.182Z,0
2016-10-07T01:12:11.247Z,0
2016-10-07T01:13:11.268Z,0
2016-10-07T01:14:26.157Z,0
2016-10-07T01:15:11.257Z,0
2016-10-07T01:16:26.205Z,0
2016-10-07T01:17:11.297Z,0
2016-10-07T01:18:11.631Z,0
2016-10-07T01:19:11.343Z,0
2016-10-07T01:20:11.364Z,0
2016-10-07T01:21:11.417Z,0
2016-10-07T01:22:26.580Z,0
2016-10-07T01:23:11.425Z,0
2016-10-07T01:24:11.548Z,0
2016-10-07T01:25:11.472Z,0
2016-10-07T01:27:11.520Z,0
2016-10-07T01:28:11.535Z,0
2016-10-07T01:29:11.569Z,0
2016-10-07T01:30:11.578Z,0
2016-10-07T01:31:11.598Z,0
2016-10-07T01:32:11.620Z,0
2016-10-07T01:33:11.895Z,0
2016-10-07T01:34:11.706Z,0
2016-10-07T01:35:11.693Z,0
2016-10-07T01:36:11.706Z,0
2016-10-07T01:37:11.781Z,0
2016-10-07T01:38:11.747Z,0
2016-10-07T01:39:11.775Z,0
2016-10-07T01:40:11.802Z,0
2016-10-07T01:41:11.811Z,0
2016-10-07T01:42:11.830Z,0
2016-10-07T01:43:11.903Z,0
2016-10-07T01:44:11.878Z,0
2016-10-07T01:45:11.900Z,0
2016-10-07T01:46:41.810Z,0
2016-10-07T01:47:11.943Z,0
2016-10-07T01:48:12.006Z,0
2016-10-07T01:49:27.205Z,0
2016-10-07T01:50:12.007Z,0
2016-10-07T01:51:12.089Z,0
2016-10-07T01:52:12.103Z,0
2016-10-07T01:53:12.066Z,0
2016-10-07T01:54:12.088Z,0
2016-10-07T01:55:27.031Z,0
2016-10-07T01:56:12.143Z,0
2016-10-07T01:57:27.372Z,0
2016-10-07T01:58:12.227Z,0
2016-10-07T01:59:12.199Z,0
2016-10-07T02:00:27.138Z,0
2016-10-07T02:01:12.243Z,0
2016-10-07T02:02:27.180Z,0
2016-10-07T02:03:12.284Z,0
2016-10-07T02:04:12.357Z,0
2016-10-07T02:05:27.253Z,0
2016-10-07T02:06:12.346Z,0
2016-10-07T02:08:12.494Z,0
2016-10-07T02:09:12.458Z,0
2016-10-07T02:10:12.429Z,0
2016-10-07T02:11:12.458Z,0
2016-10-07T02:12:12.474Z,0
2016-10-07T02:13:12.549Z,0
2016-10-07T02:14:27.442Z,0
2016-10-07T02:15:12.536Z,0
2016-10-07T02:16:12.556Z,0
2016-10-07T02:17:12.827Z,0
2016-10-07T02:18:27.527Z,0
2016-10-07T02:19:27.548Z,0
2016-10-07T02:20:12.649Z,0
2016-10-07T02:21:12.668Z,0
2016-10-07T02:22:27.664Z,0
2016-10-07T02:23:12.715Z,0
2016-10-07T02:24:12.727Z,0
2016-10-07T02:25:12.744Z,0
2016-10-07T02:26:12.778Z,0
2016-10-07T02:27:27.727Z,0
2016-10-07T02:28:27.740Z,0
2016-10-07T02:29:12.841Z,0
2016-10-07T02:30:27.780Z,0
2016-10-07T02:31:12.926Z,0
2016-10-07T02:32:12.905Z,0
2016-10-07T02:33:12.922Z,0
2016-10-07T02:34:27.877Z,0
2016-10-07T02:35:12.964Z,0
2016-10-07T02:36:27.909Z,0
2016-10-07T02:37:27.929Z,0
2016-10-07T02:38:27.949Z,0
2016-10-07T02:39:13.056Z,0
2016-10-07T02:40:13.072Z,0
2016-10-07T02:41:28.022Z,0
2016-10-07T02:42:13.117Z,0
2016-10-07T02:43:13.138Z,0
2016-10-07T02:44:13.162Z,0
2016-10-07T02:45:13.183Z,0
2016-10-07T02:46:28.139Z,0
2016-10-07T02:47:28.145Z,0
2016-10-07T02:49:28.189Z,0
2016-10-07T02:50:28.211Z,0
2016-10-07T02:51:13.302Z,0
2016-10-07T02:52:28.303Z,0
2016-10-07T02:53:28.273Z,0
2016-10-07T02:54:13.690Z,0
2016-10-07T02:55:28.621Z,0
2016-10-07T02:57:13.745Z,0
2016-10-07T02:58:13.474Z,0
2016-10-07T02:59:13.476Z,0
2016-10-07T03:00:14.033Z,0
2016-10-07T03:01:28.444Z,0
2016-10-07T03:02:13.605Z,0
2016-10-07T03:03:28.488Z,0
2016-10-07T03:04:28.516Z,0
2016-10-07T03:05:13.617Z,0
2016-10-07T03:06:13.649Z,0
2016-10-07T03:07:13.679Z,0
2016-10-07T03:08:28.600Z,0
2016-10-07T03:10:13.720Z,0
2016-10-07T03:11:13.749Z,0
2016-10-07T03:12:14.027Z,0
2016-10-07T03:13:13.788Z,0
2016-10-07T03:14:13.811Z,0
2016-10-07T03:15:13.824Z,0
2016-10-07T03:17:13.873Z,0
2016-10-07T03:18:28.817Z,0
2016-10-07T03:19:28.834Z,0
2016-10-07T03:20:14.194Z,0
2016-10-07T03:21:28.883Z,0
2016-10-07T03:22:28.908Z,0
2016-10-07T03:23:14.000Z,0
2016-10-07T03:24:14.019Z,0
2016-10-07T03:26:14.062Z,0
2016-10-07T03:27:14.093Z,0
2016-10-07T03:28:29.028Z,0
2016-10-07T03:29:14.135Z,0
2016-10-07T03:30:14.155Z,0
2016-10-07T03:31:29.096Z,0
2016-10-07T03:32:29.120Z,0
2016-10-07T03:33:14.468Z,0
2016-10-07T03:34:29.161Z,0
2016-10-07T03:35:14.260Z,0
2016-10-07T03:36:29.505Z,0
2016-10-07T03:37:29.218Z,0
2016-10-07T03:38:14.323Z,0
2016-10-07T03:39:14.352Z,0
2016-10-07T03:41:14.391Z,0
2016-10-07T03:42:14.404Z,0
2016-10-07T03:43:14.731Z,0
2016-10-07T03:44:14.749Z,0
2016-10-07T03:45:14.482Z,0
2016-10-07T03:46:14.549Z,0
2016-10-07T03:47:14.523Z,0
2016-10-07T03:48:14.539Z,0
2016-10-07T03:49:14.553Z,0
2016-10-07T03:50:44.428Z,0
2016-10-07T03:51:14.867Z,0
2016-10-07T03:52:14.626Z,0
2016-10-07T03:53:29.569Z,0
2016-10-07T03:54:14.676Z,0
2016-10-07T03:55:14.697Z,0
2016-10-07T03:56:29.632Z,0
2016-10-07T03:57:14.746Z,0
2016-10-07T03:58:14.753Z,0
2016-10-07T03:59:14.775Z,0
2016-10-07T04:00:15.092Z,0
2016-10-07T04:01:14.813Z,0
2016-10-07T04:04:14.897Z,0
2016-10-07T04:05:14.907Z,0
2016-10-07T04:06:14.929Z,0
2016-10-07T04:07:14.952Z,0
2016-10-07T04:08:14.972Z,0
2016-10-07T04:09:30.227Z,0
2016-10-07T04:10:15.012Z,0
2016-10-07T04:11:29.958Z,0
2016-10-07T04:12:30.229Z,0
2016-10-07T04:13:29.998Z,0
2016-10-07T04:14:15.098Z,0
2016-10-07T04:16:15.139Z,0
2016-10-07T04:17:15.160Z,0
2016-10-07T04:19:15.208Z,0
2016-10-07T04:20:30.150Z,0
2016-10-07T04:21:15.248Z,0
2016-10-07T04:22:15.268Z,0
2016-10-07T04:24:45.154Z,0
2016-10-07T04:25:15.332Z,0
2016-10-07T04:26:15.960Z,0
2016-10-07T04:27:15.383Z,0
2016-10-07T04:28:15.402Z,0
2016-10-07T04:29:15.422Z,0
2016-10-07T04:30:15.746Z,0
2016-10-07T04:31:15.765Z,0
2016-10-07T04:32:15.488Z,0
2016-10-07T04:33:15.504Z,0
2016-10-07T04:34:30.453Z,0
2016-10-07T04:35:15.550Z,0
2016-10-07T04:36:15.576Z,0
2016-10-07T04:37:15.591Z,0
2016-10-07T04:38:15.616Z,0
2016-10-07T04:39:15.645Z,0
2016-10-07T04:40:30.577Z,0
2016-10-07T04:41:30.595Z,0
2016-10-07T04:42:15.950Z,0
2016-10-07T04:43:15.724Z,0
2016-10-07T04:44:15.743Z,0
2016-10-07T04:45:16.364Z,0
2016-10-07T04:46:15.784Z,0
2016-10-07T04:47:15.813Z,0
2016-10-07T04:48:15.828Z,0
2016-10-07T04:49:15.846Z,0
2016-10-07T04:50:16.190Z,0
2016-10-07T04:51:30.818Z,0
2016-10-07T04:52:30.838Z,0
2016-10-07T04:53:15.942Z,0
2016-10-07T04:54:15.959Z,0
2016-10-07T04:55:15.975Z,0
2016-10-07T04:56:30.918Z,0
2016-10-07T04:57:16.018Z,0
2016-10-07T04:58:16.046Z,0
2016-10-07T04:59:16.061Z,0
2016-10-07T05:00:16.085Z,0
2016-10-07T05:01:16.114Z,0
2016-10-07T05:02:16.130Z,0
2016-10-07T05:03:16.165Z,0
2016-10-07T05:04:16.175Z,0
2016-10-07T05:05:31.113Z,0
2016-10-07T05:06:16.219Z,0
2016-10-07T05:07:16.256Z,0
2016-10-07T05:08:31.179Z,0
2016-10-07T05:09:16.302Z,0
2016-10-07T05:10:16.306Z,0
2016-10-07T05:11:31.243Z,0
2016-10-07T05:12:31.279Z,0
2016-10-07T05:13:31.286Z,0
2016-10-07T05:14:16.877Z,0
2016-10-07T05:15:16.404Z,0
2016-10-07T05:17:16.460Z,0
2016-10-07T05:18:16.476Z,0
2016-10-07T05:19:16.488Z,0
2016-10-07T05:20:31.431Z,0
2016-10-07T05:21:16.538Z,0
2016-10-07T05:22:16.561Z,0
2016-10-07T05:23:31.811Z,0
2016-10-07T05:24:16.604Z,0
2016-10-07T05:25:31.544Z,0
2016-10-07T05:26:16.636Z,0
2016-10-07T05:27:16.915Z,0
2016-10-07T05:28:31.604Z,0
2016-10-07T05:29:16.708Z,0
2016-10-07T05:30:16.732Z,0
2016-10-07T05:31:16.751Z,0
2016-10-07T05:32:31.690Z,0
2016-10-07T05:33:16.785Z,0
2016-10-07T05:34:16.813Z,0
2016-10-07T05:35:16.833Z,5
2016-10-07T05:36:16.852Z,5
2016-10-07T05:37:16.873Z,5
2016-10-07T05:38:31.825Z,5
2016-10-07T05:40:16.944Z,5
2016-10-07T05:41:16.954Z,5
2016-10-07T05:42:32.210Z,10
2016-10-07T05:43:31.925Z,10
2016-10-07T05:44:31.947Z,10
2016-10-07T05:45:32.276Z,10
2016-10-07T05:46:17.079Z,10
2016-10-07T05:47:17.087Z,10
2016-10-07T05:48:17.112Z,10
2016-10-07T05:49:17.134Z,10
2016-10-07T05:50:17.153Z,10
2016-10-07T05:51:17.171Z,15
2016-10-07T05:52:17.203Z,15
2016-10-07T05:53:17.224Z,15
2016-10-07T05:54:17.242Z,15
2016-10-07T05:55:17.263Z,15
2016-10-07T05:56:17.283Z,10
2016-10-07T05:57:17.305Z,10
2016-10-07T05:58:17.326Z,10
2016-10-07T05:59:32.268Z,10
2016-10-07T06:00:17.378Z,10
2016-10-07T06:01:17.403Z,15
2016-10-07T06:02:17.410Z,15
2016-10-07T06:03:17.435Z,15
2016-10-07T06:04:17.461Z,15
2016-10-07T06:05:17.483Z,15
2016-10-07T06:06:17.492Z,15
2016-10-07T06:07:17.524Z,15
2016-10-07T06:08:17.541Z,15
2016-10-07T06:09:17.558Z,15
2016-10-07T06:10:32.761Z,15
2016-10-07T06:11:32.525Z,15
2016-10-07T06:12:17.622Z,15
2016-10-07T06:13:32.574Z,15
2016-10-07T06:14:17.675Z,15
2016-10-07T06:15:17.704Z,20
2016-10-07T06:16:17.713Z,20
2016-10-07T06:17:17.729Z,25
2016-10-07T06:18:17.750Z,25
2016-10-07T06:19:17.781Z,30
2016-10-07T06:20:17.801Z,30
2016-10-07T06:21:17.835Z,30
2016-10-07T06:22:17.843Z,25
2016-10-07T06:23:17.875Z,25
2016-10-07T06:25:17.904Z,20
2016-10-07T06:26:17.924Z,25
2016-10-07T06:27:32.881Z,25
2016-10-07T06:28:17.969Z,25
2016-10-07T06:29:17.988Z,25
2016-10-07T06:30:18.017Z,25
2016-10-07T06:31:32.973Z,25
2016-10-07T06:32:18.066Z,25
2016-10-07T06:33:18.082Z,25
2016-10-07T06:34:18.108Z,20
2016-10-07T06:35:18.174Z,20
2016-10-07T06:37:18.170Z,20
2016-10-07T06:38:18.188Z,20
2016-10-07T06:39:18.213Z,20
2016-10-07T06:40:33.159Z,20
2016-10-07T06:41:33.174Z,20
2016-10-07T06:42:48.125Z,25
2016-10-07T06:43:33.222Z,25
2016-10-07T06:44:18.323Z,20
2016-10-07T06:45:33.262Z,20
2016-10-07T06:46:18.360Z,20
2016-10-07T06:47:33.305Z,20
2016-10-07T06:48:18.403Z,25
2016-10-07T06:49:18.421Z,30
2016-10-07T06:50:33.384Z,40
2016-10-07T06:51:18.479Z,45
2016-10-07T06:52:18.489Z,55
2016-10-07T06:53:18.571Z,75
2016-10-07T06:54:18.540Z,80
2016-10-07T06:55:18.564Z,95
2016-10-07T06:56:18.590Z,115
2016-10-07T06:57:18.603Z,95
2016-10-07T06:58:18.723Z,80
2016-10-07T06:59:18.641Z,65
2016-10-07T07:00:18.671Z,55
2016-10-07T07:01:18.699Z,50
2016-10-07T07:02:18.711Z,50
2016-10-07T07:03:33.659Z,50
2016-10-07T07:04:33.677Z,50
2016-10-07T07:05:33.696Z,55
2016-10-07T07:06:19.048Z,60
2016-10-07T07:07:33.744Z,75
2016-10-07T07:08:18.842Z,85
2016-10-07T07:09:18.862Z,105
2016-10-07T07:10:18.886Z,110
2016-10-07T07:11:18.906Z,115
2016-10-07T07:12:18.928Z,110
2016-10-07T07:13:33.880Z,95
2016-10-07T07:14:18.979Z,90
2016-10-07T07:15:19.242Z,90
2016-10-07T07:16:19.028Z,95
2016-10-07T07:17:33.971Z,105
2016-10-07T07:18:33.990Z,120
2016-10-07T07:19:48.928Z,135
2016-10-07T07:20:19.125Z,130
2016-10-07T07:21:19.133Z,110
2016-10-07T07:22:19.156Z,95
2016-10-07T07:23:19.174Z,85
2016-10-07T07:24:19.207Z,85
2016-10-07T07:25:19.211Z,80
2016-10-07T07:26:19.243Z,80
2016-10-07T07:27:19.268Z,75
2016-10-07T07:28:19.301Z,65
2016-10-07T07:29:34.227Z,55
2016-10-07T07:30:19.329Z,60
2016-10-07T07:31:19.350Z,65
2016-10-07T07:32:19.387Z,70
2016-10-07T07:33:19.396Z,70
2016-10-07T07:34:34.348Z,75
2016-10-07T07:35:19.451Z,75
2016-10-07T07:36:34.398Z,75
2016-10-07T07:37:19.487Z,75
2016-10-07T07:38:19.506Z,75
2016-10-07T07:39:19.533Z,75
2016-10-07T07:40:19.567Z,70
2016-10-07T07:41:19.588Z,70
2016-10-07T07:42:19.602Z,70
2016-10-07T07:43:19.620Z,75
2016-10-07T07:44:19.646Z,90
2016-10-07T07:45:34.593Z,105
2016-10-07T07:46:19.700Z,110
2016-10-07T07:47:19.723Z,115
2016-10-07T07:48:19.740Z,125
2016-10-07T07:49:20.070Z,120
2016-10-07T07:50:19.790Z,120
2016-10-07T07:51:19.855Z,120
2016-10-07T07:52:19.833Z,125
2016-10-07T07:53:20.099Z,140
2016-10-07T07:54:19.927Z,135
2016-10-07T07:55:19.892Z,135
2016-10-07T07:56:19.925Z,135
2016-10-07T07:57:20.195Z,140
2016-10-07T07:58:19.970Z,145
2016-10-07T07:59:19.995Z,155
2016-10-07T08:00:34.934Z,160
2016-10-07T08:01:20.029Z,150
2016-10-07T08:02:20.055Z,135
2016-10-07T08:03:20.088Z,130
2016-10-07T08:04:20.597Z,125
2016-10-07T08:05:20.120Z,120
2016-10-07T08:06:35.074Z,115
2016-10-07T08:07:35.346Z,115
2016-10-07T08:08:20.186Z,110
2016-10-07T08:09:20.212Z,110
2016-10-07T08:10:20.391Z,115
2016-10-07T08:11:20.272Z,115
2016-10-07T08:12:35.214Z,120
2016-10-07T08:13:20.330Z,120
2016-10-07T08:14:20.335Z,120
2016-10-07T08:15:20.357Z,115
2016-10-07T08:16:20.371Z,110
2016-10-07T08:17:20.701Z,105
2016-10-07T08:18:20.426Z,100
2016-10-07T08:20:35.401Z,100
2016-10-07T08:21:20.500Z,100
2016-10-07T08:22:35.452Z,100
2016-10-07T08:23:20.547Z,95
2016-10-07T08:24:20.570Z,100
2016-10-07T08:26:20.613Z,105
2016-10-07T08:27:20.643Z,105
2016-10-07T08:28:20.654Z,110
2016-10-07T08:29:35.598Z,115
2016-10-07T08:31:20.731Z,120
2016-10-07T08:32:20.756Z,125
2016-10-07T08:33:35.696Z,120
2016-10-07T08:34:20.795Z,120
2016-10-07T08:35:20.817Z,115
2016-10-07T08:36:20.834Z,115
2016-10-07T08:37:20.871Z,110
2016-10-07T08:39:20.905Z,110
2016-10-07T08:40:20.940Z,110
2016-10-07T08:42:20.989Z,100
2016-10-07T08:43:21.003Z,95
2016-10-07T08:44:21.029Z,95
2016-10-07T08:45:21.056Z,90
2016-10-07T08:46:21.080Z,85
2016-10-07T08:49:21.138Z,80
2016-10-07T08:50:36.142Z,75
2016-10-07T08:51:21.188Z,75
2016-10-07T08:52:36.481Z,80
2016-10-07T08:53:21.228Z,80
2016-10-07T08:54:36.198Z,80
2016-10-07T08:55:21.283Z,80
2016-10-07T08:56:21.307Z,75
2016-10-07T08:57:21.328Z,75
2016-10-07T08:58:21.367Z,75
2016-10-07T08:59:21.380Z,75
2016-10-07T09:00:21.405Z,75
2016-10-07T09:01:36.339Z,70
2016-10-07T09:02:36.417Z,70
2016-10-07T09:03:21.470Z,65
2016-10-07T09:04:21.496Z,65
2016-10-07T09:05:21.511Z,70
2016-10-07T09:06:21.542Z,80
2016-10-07T09:07:21.557Z,85
2016-10-07T09:08:21.583Z,95
2016-10-07T09:09:36.525Z,100
2016-10-07T09:10:21.645Z,105
2016-10-07T09:11:21.655Z,110
2016-10-07T09:12:21.677Z,110
2016-10-07T09:13:21.701Z,115
2016-10-07T09:14:21.719Z,110
2016-10-07T09:15:21.748Z,110
2016-10-07T09:16:21.777Z,105
2016-10-07T09:17:21.798Z,105
2016-10-07T09:19:21.831Z,110
2016-10-07T09:20:21.856Z,115
2016-10-07T09:21:21.881Z,125
2016-10-07T09:22:37.072Z,130
2016-10-07T09:23:36.862Z,130
2016-10-07T09:25:21.978Z,125
2016-10-07T09:26:21.993Z,115
2016-10-07T09:27:22.020Z,110
2016-10-07T09:28:22.038Z,105
2016-10-07T09:29:22.056Z,100
2016-10-07T09:30:22.084Z,95
2016-10-07T09:31:22.127Z,95
2016-10-07T09:32:22.133Z,95
2016-10-07T09:33:22.168Z,95
2016-10-07T09:34:37.413Z,95
2016-10-07T09:35:22.207Z,100
2016-10-07T09:36:22.233Z,100
2016-10-07T09:37:37.170Z,100
2016-10-07T09:38:22.276Z,110
2016-10-07T09:39:22.348Z,110
2016-10-07T09:40:22.317Z,110
2016-10-07T09:41:37.260Z,115
2016-10-07T09:42:22.370Z,115
2016-10-07T09:43:22.391Z,115
2016-10-07T09:44:22.408Z,120
2016-10-07T09:45:22.441Z,120
2016-10-07T09:46:22.466Z,120
2016-10-07T09:47:22.480Z,125
2016-10-07T09:48:22.751Z,130
2016-10-07T09:49:22.524Z,135
2016-10-07T09:50:37.473Z,140
2016-10-07T09:51:22.577Z,145
2016-10-07T09:52:22.597Z,155
2016-10-07T09:53:22.620Z,160
2016-10-07T09:54:37.572Z,160
2016-10-07T09:55:22.660Z,170
2016-10-07T09:56:22.691Z,180
2016-10-07T09:57:37.638Z,190
2016-10-07T09:58:37.959Z,190
2016-10-07T09:59:22.768Z,190
2016-10-07T10:00:22.793Z,190
2016-10-07T10:01:37.741Z,190
2016-10-07T10:02:37.762Z,190
2016-10-07T10:03:23.156Z,190
2016-10-07T10:04:22.878Z,190
2016-10-07T10:05:22.923Z,185
2016-10-07T10:06:22.934Z,185
2016-10-07T10:07:22.947Z,190
2016-10-07T10:10:23.019Z,185
2016-10-07T10:11:23.039Z,180
2016-10-07T10:12:23.069Z,175
2016-10-07T10:13:52.936Z,165
2016-10-07T10:14:23.114Z,155
2016-10-07T10:15:23.136Z,145
2016-10-07T10:16:23.161Z,135
2016-10-07T10:17:23.181Z,130
2016-10-07T10:18:23.205Z,125
2016-10-07T10:19:23.233Z,125
2016-10-07T10:20:38.180Z,120
2016-10-07T10:22:23.307Z,115
2016-10-07T10:23:23.319Z,110
2016-10-07T10:24:23.354Z,110
2016-10-07T10:25:23.367Z,105
2016-10-07T10:26:23.404Z,105
2016-10-07T10:27:23.423Z,110
2016-10-07T10:28:23.445Z,105
2016-10-07T10:29:38.388Z,105
2016-10-07T10:30:23.488Z,105
2016-10-07T10:31:23.512Z,105
2016-10-07T10:32:23.538Z,105
2016-10-07T10:33:23.822Z,105
2016-10-07T10:34:23.590Z,110
2016-10-07T10:35:23.613Z,110
2016-10-07T10:36:23.628Z,115
2016-10-07T10:37:23.655Z,115
2016-10-07T10:38:23.680Z,120
2016-10-07T10:39:23.699Z,120
2016-10-07T10:41:23.753Z,125
2016-10-07T10:42:38.692Z,130
2016-10-07T10:43:23.792Z,130
2016-10-07T10:44:38.992Z,130
2016-10-07T10:45:23.845Z,130
2016-10-07T10:46:38.791Z,140
2016-10-07T10:47:38.816Z,150
2016-10-07T10:48:23.919Z,150
2016-10-07T10:49:23.938Z,155
2016-10-07T10:50:23.964Z,160
2016-10-07T10:51:23.978Z,165
2016-10-07T10:52:24.013Z,170
2016-10-07T10:53:24.030Z,175
2016-10-07T10:54:24.060Z,175
2016-10-07T10:55:24.080Z,170
2016-10-07T10:56:39.034Z,160
2016-10-07T10:57:24.138Z,145
2016-10-07T10:58:24.146Z,135
2016-10-07T10:59:39.103Z,120
2016-10-07T11:00:39.122Z,110
2016-10-07T11:01:24.228Z,105
2016-10-07T11:02:24.559Z,105
2016-10-07T11:03:24.278Z,100
2016-10-07T11:04:24.596Z,105
2016-10-07T11:05:24.317Z,105
2016-10-07T11:06:24.344Z,110
2016-10-07T11:07:24.372Z,115
2016-10-07T11:10:24.440Z,130
2016-10-07T11:11:24.711Z,135
2016-10-07T11:12:24.489Z,135
2016-10-07T11:13:24.513Z,125
2016-10-07T11:15:24.555Z,115
2016-10-07T11:16:39.498Z,115
2016-10-07T11:17:24.610Z,110
2016-10-07T11:18:39.553Z,105
2016-10-07T11:19:24.963Z,110
2016-10-07T11:21:24.701Z,115
2016-10-07T11:22:24.722Z,115
2016-10-07T11:24:24.785Z,105
2016-10-07T11:25:24.811Z,105
2016-10-07T11:26:25.075Z,105
2016-10-07T11:27:24.838Z,110
2016-10-07T11:28:24.870Z,115
2016-10-07T11:29:39.819Z,120
2016-10-07T11:30:24.909Z,120
2016-10-07T11:31:24.993Z,125
2016-10-07T11:32:39.890Z,130
2016-10-07T11:33:25.298Z,130
2016-10-07T11:34:25.260Z,140
2016-10-07T11:35:25.033Z,145
2016-10-07T11:36:25.066Z,145
2016-10-07T11:37:40.002Z,145
2016-10-07T11:38:25.127Z,150
2016-10-07T11:40:25.168Z,150
2016-10-07T11:41:25.183Z,155
2016-10-07T11:42:25.205Z,160
2016-10-07T11:43:25.222Z,160
2016-10-07T11:45:25.274Z,135
2016-10-07T11:46:25.299Z,115
2016-10-07T11:47:55.168Z,95
2016-10-07T11:48:40.269Z,90
2016-10-07T11:49:25.369Z,90
2016-10-07T11:51:25.480Z,90
2016-10-07T11:52:26.439Z,100
2016-10-07T11:53:25.461Z,100
2016-10-07T11:54:25.504Z,105
2016-10-07T11:55:25.761Z,110
2016-10-07T11:57:25.582Z,115
2016-10-07T11:58:25.590Z,115
2016-10-07T11:59:25.613Z,115
2016-10-07T12:00:25.636Z,115
2016-10-07T12:01:40.584Z,115
2016-10-07T12:03:25.699Z,120
2016-10-07T12:04:40.656Z,120
2016-10-07T12:05:25.754Z,120
2016-10-07T12:06:25.784Z,125
2016-10-07T12:07:25.801Z,125
2016-10-07T12:08:25.834Z,130
2016-10-07T12:09:26.160Z,135
2016-10-07T12:11:26.147Z,135
2016-10-07T12:12:25.929Z,140
2016-10-07T12:13:25.961Z,145
2016-10-07T12:14:25.969Z,145
2016-10-07T12:15:40.916Z,145
2016-10-07T12:16:26.026Z,145
2016-10-07T12:17:26.048Z,145
2016-10-07T12:18:26.065Z,145
2016-10-07T12:19:41.025Z,140
2016-10-07T12:20:26.124Z,140
2016-10-07T12:21:26.140Z,140
2016-10-07T12:22:26.164Z,135
2016-10-07T12:23:26.186Z,135
2016-10-07T12:24:26.459Z,140
2016-10-07T12:25:26.228Z,135
2016-10-07T12:26:26.664Z,135
2016-10-07T12:27:26.292Z,135
2016-10-07T12:28:26.311Z,130
2016-10-07T12:29:26.332Z,120
2016-10-07T12:30:41.284Z,110
2016-10-07T12:31:26.383Z,105
2016-10-07T12:32:26.409Z,95
2016-10-07T12:33:26.429Z,95
2016-10-07T12:35:26.476Z,80
2016-10-07T12:36:26.504Z,75
2016-10-07T12:37:26.521Z,70
2016-10-07T12:38:26.549Z,70
2016-10-07T12:39:26.871Z,65
2016-10-07T12:40:26.600Z,65
2016-10-07T12:41:26.623Z,70
2016-10-07T12:43:26.913Z,75
2016-10-07T12:44:41.617Z,80
2016-10-07T12:45:27.021Z,85
2016-10-07T12:46:26.736Z,90
2016-10-07T12:47:26.763Z,95
2016-10-07T12:48:26.793Z,95
2016-10-07T12:49:26.812Z,95
2016-10-07T12:50:26.930Z,100
2016-10-07T12:51:41.880Z,100
2016-10-07T12:52:27.193Z,95
2016-10-07T12:53:27.209Z,95
2016-10-07T12:54:26.952Z,100
2016-10-07T12:55:26.970Z,100
2016-10-07T12:56:26.981Z,105
2016-10-07T12:57:27.257Z,110
2016-10-07T12:58:27.043Z,115
2016-10-07T12:59:27.050Z,120
2016-10-07T13:00:27.076Z,125
2016-10-07T13:01:27.111Z,130
2016-10-07T13:02:27.116Z,135
2016-10-07T13:03:42.069Z,140
2016-10-07T13:04:27.166Z,140
2016-10-07T13:05:27.192Z,140
2016-10-07T13:06:42.137Z,135
2016-10-07T13:07:42.418Z,135
2016-10-07T13:08:27.281Z,135
2016-10-07T13:09:27.289Z,135
2016-10-07T13:10:27.313Z,135
2016-10-07T13:11:27.336Z,135
2016-10-07T13:13:42.303Z,135
2016-10-07T13:14:42.325Z,135
2016-10-07T13:15:27.437Z,135
2016-10-07T13:16:27.462Z,135
2016-10-07T13:17:27.482Z,135
2016-10-07T13:18:27.501Z,135
2016-10-07T13:19:27.536Z,135
2016-10-07T13:20:27.551Z,135
2016-10-07T13:21:27.577Z,135
2016-10-07T13:23:42.547Z,135
2016-10-07T13:24:27.651Z,135
2016-10-07T13:25:27.923Z,135
2016-10-07T13:26:27.695Z,135
2016-10-07T13:27:28.023Z,135
2016-10-07T13:28:42.665Z,135
2016-10-07T13:29:27.768Z,140
2016-10-07T13:30:27.799Z,150
2016-10-07T13:31:27.818Z,145
2016-10-07T13:32:57.691Z,150
2016-10-07T13:33:42.792Z,150
2016-10-07T13:34:27.888Z,160
2016-10-07T13:35:57.761Z,170
2016-10-07T13:36:27.943Z,165
2016-10-07T13:37:42.885Z,160
2016-10-07T13:38:27.996Z,170
2016-10-07T13:39:42.934Z,155
2016-10-07T13:40:42.958Z,165
2016-10-07T13:41:28.055Z,165
2016-10-07T13:42:28.088Z,145
2016-10-07T13:44:28.134Z,155
2016-10-07T13:45:28.458Z,160
2016-10-07T13:46:28.189Z,160
2016-10-07T13:47:28.209Z,150
2016-10-07T13:48:43.152Z,150
2016-10-07T13:49:28.255Z,145
2016-10-07T13:50:43.201Z,145
2016-10-07T13:51:28.299Z,140
2016-10-07T13:52:28.574Z,140
2016-10-07T13:53:43.266Z,135
2016-10-07T13:54:43.296Z,135
2016-10-07T13:55:28.404Z,130
2016-10-07T13:56:28.418Z,125
2016-10-07T13:57:28.436Z,120
2016-10-07T13:58:28.471Z,115
2016-10-07T13:59:28.491Z,115
2016-10-07T14:00:28.519Z,110
2016-10-07T14:01:28.534Z,105
2016-10-07T14:02:28.562Z,100
2016-10-07T14:03:28.839Z,100
2016-10-07T14:04:28.604Z,100
2016-10-07T14:05:28.632Z,100
2016-10-07T14:06:28.916Z,95
2016-10-07T14:07:28.678Z,100
2016-10-07T14:08:58.551Z,95
2016-10-07T14:09:43.962Z,95
2016-10-07T14:10:28.751Z,95
2016-10-07T14:11:28.928Z,95
2016-10-07T14:13:28.822Z,90
2016-10-07T14:14:28.846Z,85
2016-10-07T14:15:28.871Z,85
2016-10-07T14:16:28.894Z,85
2016-10-07T14:17:28.929Z,80
2016-10-07T14:18:28.950Z,80
2016-10-07T14:19:28.978Z,80
2016-10-07T14:20:28.995Z,75
2016-10-07T14:23:29.319Z,70
2016-10-07T14:24:29.097Z,65
2016-10-07T14:25:29.117Z,65
2016-10-07T14:26:44.072Z,60
2016-10-07T14:27:29.157Z,60
2016-10-07T14:29:29.220Z,55
2016-10-07T14:30:29.374Z,45
2016-10-07T14:31:29.246Z,45
2016-10-07T14:33:29.308Z,40
2016-10-07T14:34:29.321Z,40
2016-10-07T14:35:29.344Z,40
2016-10-07T14:36:29.665Z,35
2016-10-07T14:37:29.405Z,35
2016-10-07T14:38:29.418Z,35
2016-10-07T14:39:29.442Z,35
2016-10-07T14:40:29.468Z,30
2016-10-07T14:41:29.492Z,30
2016-10-07T14:42:44.442Z,30
2016-10-07T14:44:29.557Z,30
2016-10-07T14:45:29.587Z,25
2016-10-07T14:46:29.605Z,25
2016-10-07T14:47:29.631Z,25
2016-10-07T14:48:29.651Z,25
2016-10-07T14:49:29.674Z,25
2016-10-07T14:50:29.705Z,25
2016-10-07T14:51:29.713Z,25
2016-10-07T14:52:29.756Z,25
2016-10-07T14:53:29.766Z,25
2016-10-07T14:54:44.717Z,25
2016-10-07T14:55:29.823Z,25
2016-10-07T14:56:29.848Z,25
2016-10-07T14:57:29.913Z,25
2016-10-07T14:58:44.808Z,25
2016-10-07T14:59:29.915Z,25
2016-10-07T15:00:29.934Z,20
2016-10-07T15:01:29.980Z,20
2016-10-07T15:02:29.979Z,20
2016-10-07T15:03:44.940Z,20
2016-10-07T15:04:30.025Z,20
2016-10-07T15:05:44.979Z,20
2016-10-07T15:06:30.080Z,20
2016-10-07T15:07:30.091Z,15
2016-10-07T15:08:45.046Z,15
2016-10-07T15:09:30.139Z,15
2016-10-07T15:10:30.163Z,15
2016-10-07T15:11:30.192Z,15
2016-10-07T15:12:30.218Z,10
2016-10-07T15:13:30.241Z,10
2016-10-07T15:15:30.294Z,10
2016-10-07T15:16:30.319Z,10